createdAt,value
2023-01-28T00:02:54.668Z,2.79
2023-01-28T00:07:57.725Z,2.82
2023-01-28T00:12:59.154Z,2.85
2023-01-28T00:18:00.696Z,2.85
2023-01-28T00:23:02.263Z,2.83
2023-01-28T00:28:03.723Z,2.83
2023-01-28T00:33:05.184Z,2.84
2023-01-28T00:38:06.633Z,2.82
2023-01-28T00:43:08.031Z,2.80
2023-01-28T00:48:09.550Z,2.83
2023-01-28T00:53:10.995Z,2.83
2023-01-28T00:58:12.385Z,2.82
2023-01-28T01:03:13.860Z,2.83
2023-01-28T01:08:15.300Z,2.84
2023-01-28T01:13:16.716Z,2.85
2023-01-28T01:18:18.721Z,2.88
2023-01-28T01:23:20.106Z,2.90
2023-01-28T01:28:22.389Z,2.93
2023-01-28T01:33:23.808Z,2.90
2023-01-28T01:38:26.171Z,2.89
2023-01-28T01:43:57.159Z,2.87
2023-01-28T01:49:14.719Z,2.88
2023-01-28T01:54:17.347Z,2.86
2023-01-28T01:59:25.373Z,2.86
2023-01-28T02:04:30.989Z,2.89
2023-01-28T02:09:36.090Z,2.90
2023-01-28T02:14:44.432Z,2.91
2023-01-28T02:19:58.749Z,2.92
2023-01-28T02:25:42.966Z,2.92
2023-01-28T02:31:10.488Z,2.94
2023-01-28T02:36:25.116Z,2.93
2023-01-28T02:41:35.750Z,2.90
2023-01-28T02:46:56.658Z,2.88
2023-01-28T02:52:05.996Z,2.87
2023-01-28T02:57:13.729Z,2.85
2023-01-28T03:02:27.245Z,2.87
2023-01-28T03:07:32.309Z,2.92
2023-01-28T03:12:55.677Z,2.96
2023-01-28T03:18:30.483Z,3.02
2023-01-28T03:24:22.823Z,3.06
2023-01-28T03:29:44.676Z,3.05
2023-01-28T03:35:06.046Z,3.02
2023-01-28T03:40:08.215Z,3.00
2023-01-28T03:45:10.190Z,2.99
2023-01-28T03:50:11.768Z,3.01
2023-01-28T03:55:14.669Z,2.97
2023-01-28T04:00:18.141Z,3.03
2023-01-28T04:05:20.271Z,3.10
2023-01-28T04:10:22.018Z,3.16
2023-01-28T04:15:24.029Z,3.16
2023-01-28T04:20:25.443Z,3.15
2023-01-28T04:25:26.911Z,3.19
2023-01-28T04:30:28.477Z,3.19
2023-01-28T04:35:29.957Z,3.21
2023-01-28T04:40:31.416Z,3.15
2023-01-28T04:45:32.814Z,3.15
2023-01-28T04:50:34.271Z,3.18
2023-01-28T04:55:36.019Z,3.20
2023-01-28T05:00:37.510Z,3.16
2023-01-28T05:05:38.902Z,3.15
2023-01-28T05:10:40.514Z,3.16
2023-01-28T05:15:41.985Z,3.16
2023-01-28T05:20:43.371Z,3.16
2023-01-28T05:25:45.834Z,3.17
2023-01-28T05:30:47.281Z,3.11
2023-01-28T05:35:49.786Z,3.01
2023-01-28T05:40:51.250Z,2.88
2023-01-28T05:45:53.760Z,2.78
2023-01-28T05:50:55.294Z,2.72
2023-01-28T05:55:56.951Z,2.76
2023-01-28T06:00:58.422Z,2.76
2023-01-28T06:05:59.893Z,2.75
2023-01-28T06:11:01.329Z,2.72
2023-01-28T06:16:03.608Z,2.73
2023-01-28T06:21:05.317Z,2.60
2023-01-28T06:26:06.863Z,2.59
2023-01-28T06:31:08.429Z,2.55
2023-01-28T06:36:10.130Z,2.55
2023-01-28T06:41:11.577Z,2.62
2023-01-28T06:46:13.325Z,2.73
2023-01-28T06:51:14.881Z,2.78
2023-01-28T06:56:16.385Z,2.81
2023-01-28T07:01:17.858Z,2.79
2023-01-28T07:06:19.407Z,2.73
2023-01-28T07:11:20.869Z,2.70
2023-01-28T07:16:22.613Z,2.69
2023-01-28T07:21:24.027Z,2.72
2023-01-28T07:26:25.494Z,2.71
2023-01-28T07:31:27.084Z,2.71
2023-01-28T07:36:28.643Z,2.69
2023-01-28T07:41:30.198Z,2.68
2023-01-28T07:46:31.830Z,2.77
2023-01-28T07:51:33.389Z,2.80
2023-01-28T07:56:34.885Z,2.84
2023-01-28T08:01:36.499Z,2.85
2023-01-28T08:06:38.041Z,2.87
2023-01-28T08:11:39.780Z,2.87
2023-01-28T08:16:41.259Z,2.88
2023-01-28T08:21:44.493Z,2.96
2023-01-28T08:26:48.422Z,3.01
2023-01-28T08:31:49.944Z,3.07
2023-01-28T08:36:51.558Z,3.16
2023-01-28T08:41:53.024Z,3.25
2023-01-28T08:46:54.514Z,3.30
2023-01-28T08:51:55.990Z,3.29
2023-01-28T08:56:57.381Z,3.35
2023-01-28T09:01:59.012Z,3.42
2023-01-28T09:07:02.005Z,3.48
2023-01-28T09:12:03.745Z,3.59
2023-01-28T09:17:05.626Z,3.72
2023-01-28T09:22:07.109Z,3.80
2023-01-28T09:27:08.825Z,3.80
2023-01-28T09:32:10.288Z,3.87
2023-01-28T09:37:12.259Z,3.91
2023-01-28T09:42:25.161Z,3.94
2023-01-28T09:47:30.608Z,4.01
2023-01-28T09:52:37.018Z,4.06
2023-01-28T09:57:45.580Z,4.07
2023-01-28T10:03:01.293Z,4.03
2023-01-28T10:08:26.622Z,4.20
2023-01-28T10:13:51.408Z,4.45
2023-01-28T10:19:02.789Z,4.34
2023-01-28T10:24:32.156Z,4.20
2023-01-28T10:29:35.279Z,4.10
2023-01-28T10:34:37.398Z,4.09
2023-01-28T10:39:38.925Z,4.17
2023-01-28T10:44:44.552Z,4.18
2023-01-28T10:49:51.882Z,4.15
2023-01-28T10:55:01.356Z,4.11
2023-01-28T11:00:24.453Z,4.18
2023-01-28T11:05:30.985Z,4.26
2023-01-28T11:10:35.438Z,4.24
2023-01-28T11:15:46.306Z,4.11
2023-01-28T11:21:19.617Z,3.98
2023-01-28T11:26:31.049Z,3.85
2023-01-28T11:31:41.725Z,3.82
2023-01-28T11:36:51.977Z,3.84
2023-01-28T11:41:54.098Z,3.87
2023-01-28T11:47:10.955Z,3.83
2023-01-28T11:53:05.933Z,3.93
2023-01-28T11:58:27.696Z,3.93
2023-01-28T12:03:38.552Z,3.92
2023-01-28T12:08:52.482Z,3.88
2023-01-28T12:14:12.160Z,3.91
2023-01-28T12:19:24.058Z,4.02
2023-01-28T12:24:34.387Z,4.16
2023-01-28T12:29:50.584Z,4.29
2023-01-28T12:34:56.865Z,4.43
2023-01-28T12:40:10.595Z,4.44
2023-01-28T12:45:20.041Z,4.35
2023-01-28T12:50:29.893Z,4.46
2023-01-28T12:55:54.284Z,4.57
2023-01-28T13:01:03.645Z,4.58
2023-01-28T13:06:10.984Z,4.59
2023-01-28T13:11:17.172Z,4.67
2023-01-28T13:16:21.299Z,4.52
2023-01-28T13:21:29.044Z,4.44
2023-01-28T13:26:46.080Z,4.46
2023-01-28T13:31:52.312Z,4.49
2023-01-28T13:36:54.720Z,4.41
2023-01-28T13:42:10.318Z,4.25
2023-01-28T13:47:17.322Z,4.35
2023-01-28T13:52:37.575Z,4.38
2023-01-28T13:58:03.929Z,4.34
2023-01-28T14:03:07.050Z,4.28
2023-01-28T14:08:42.663Z,4.29
2023-01-28T14:14:19.543Z,4.21
2023-01-28T14:19:31.858Z,4.22
2023-01-28T14:24:33.952Z,4.29
2023-01-28T14:29:58.004Z,4.35
2023-01-28T14:35:05.823Z,4.39
2023-01-28T14:40:12.545Z,4.37
2023-01-28T14:45:55.248Z,4.33
2023-01-28T14:51:19.520Z,4.34
2023-01-28T14:56:35.537Z,4.21
2023-01-28T15:01:45.023Z,4.14
2023-01-28T15:06:46.576Z,4.15
2023-01-28T15:11:52.120Z,4.13
2023-01-28T15:16:54.463Z,4.16
2023-01-28T15:21:58.933Z,4.15
2023-01-28T15:27:01.372Z,4.15
2023-01-28T15:32:04.745Z,4.14
2023-01-28T15:37:06.382Z,4.11
2023-01-28T15:42:08.062Z,4.02
2023-01-28T15:47:28.770Z,3.88
2023-01-28T15:52:42.012Z,3.82
2023-01-28T15:57:43.531Z,3.73
2023-01-28T16:02:46.673Z,3.66
2023-01-28T16:07:48.192Z,3.68
2023-01-28T16:12:54.555Z,3.67
2023-01-28T16:17:56.145Z,3.66
2023-01-28T16:23:03.053Z,3.59
2023-01-28T16:28:18.750Z,3.54
2023-01-28T16:33:22.098Z,3.49
2023-01-28T16:38:23.605Z,3.45
2023-01-28T16:43:25.058Z,3.43
2023-01-28T16:48:26.534Z,3.43
2023-01-28T16:53:34.594Z,3.43
2023-01-28T16:58:36.335Z,3.40
2023-01-28T17:03:40.925Z,3.39
2023-01-28T17:08:42.443Z,3.36
2023-01-28T17:13:43.931Z,3.35
2023-01-28T17:18:46.907Z,3.36
2023-01-28T17:23:50.195Z,3.33
2023-01-28T17:28:53.425Z,3.31
2023-01-28T17:33:56.827Z,3.25
2023-01-28T17:38:58.286Z,3.22
2023-01-28T17:43:59.821Z,3.17
2023-01-28T17:49:01.983Z,3.18
2023-01-28T17:54:04.014Z,3.20
2023-01-28T17:59:06.602Z,3.24
2023-01-28T18:04:08.209Z,3.23
2023-01-28T18:09:10.050Z,3.20
2023-01-28T18:14:11.533Z,3.14
2023-01-28T18:19:12.951Z,3.13
2023-01-28T18:24:14.855Z,3.09
2023-01-28T18:29:20.387Z,3.13
2023-01-28T18:34:24.271Z,3.13
2023-01-28T18:39:30.146Z,3.12
2023-01-28T18:44:32.013Z,3.08
2023-01-28T18:49:33.531Z,3.00
2023-01-28T18:54:35.261Z,2.97
2023-01-28T18:59:36.680Z,2.94
2023-01-28T19:04:38.164Z,2.92
2023-01-28T19:09:39.636Z,2.89
2023-01-28T19:14:41.449Z,2.88
2023-01-28T19:19:42.918Z,2.91
2023-01-28T19:24:44.409Z,2.90
2023-01-28T19:29:46.023Z,2.89
2023-01-28T19:34:47.552Z,2.89
2023-01-28T19:39:49.178Z,2.85
2023-01-28T19:44:51.339Z,2.87
2023-01-28T19:49:52.790Z,2.89
2023-01-28T19:54:54.279Z,2.81
2023-01-28T19:59:55.755Z,2.75
2023-01-28T20:05:00.913Z,2.71
2023-01-28T20:10:02.761Z,2.67
2023-01-28T20:15:04.538Z,2.67
2023-01-28T20:20:06.834Z,2.62
2023-01-28T20:25:09.064Z,2.55
2023-01-28T20:30:11.275Z,2.49
2023-01-28T20:35:12.905Z,2.46
2023-01-28T20:40:14.589Z,2.51
2023-01-28T20:45:16.616Z,2.51
2023-01-28T20:50:19.900Z,2.54
2023-01-28T20:55:21.409Z,2.50
2023-01-28T21:00:23.618Z,2.51
2023-01-28T21:05:25.160Z,2.49
2023-01-28T21:10:26.683Z,2.44
2023-01-28T21:15:28.358Z,2.34
2023-01-28T21:20:31.938Z,2.27
2023-01-28T21:25:33.403Z,2.27
2023-01-28T21:30:34.922Z,2.26
2023-01-28T21:35:42.303Z,2.32
2023-01-28T21:40:43.755Z,2.28
2023-01-28T21:45:48.531Z,2.28
2023-01-28T21:51:08.829Z,2.27
2023-01-28T21:56:10.285Z,2.28
2023-01-28T22:01:11.905Z,2.27
2023-01-28T22:06:13.421Z,2.33
2023-01-28T22:11:14.839Z,2.25
2023-01-28T22:16:17.397Z,2.20
2023-01-28T22:21:18.845Z,2.21
2023-01-28T22:26:20.344Z,2.25
2023-01-28T22:31:21.917Z,2.26
2023-01-28T22:36:23.789Z,2.22
2023-01-28T22:41:25.625Z,2.25
2023-01-28T22:46:27.873Z,2.26
2023-01-28T22:51:34.798Z,2.26
2023-01-28T22:56:36.292Z,2.28
2023-01-28T23:01:37.883Z,2.27
2023-01-28T23:06:39.458Z,2.24
2023-01-28T23:11:40.877Z,2.25
2023-01-28T23:17:00.859Z,2.19
2023-01-28T23:22:20.740Z,2.08
2023-01-28T23:27:22.166Z,2.05
2023-01-28T23:32:23.686Z,1.95
2023-01-28T23:37:25.168Z,1.86
2023-01-28T23:42:26.632Z,1.82
2023-01-28T23:47:28.154Z,1.76
2023-01-28T23:52:29.670Z,1.81
2023-01-28T23:57:31.176Z,1.74
